Time;durP1;ratioP1;P1;durP2;ratioP2;P2;SDS_P1;SDS_P2;PMS_P1;PMS_P2;Temp;Humidity;BMP_temperature;BMP_pressure;BME280_temperature;BME280_humidity;BME280_pressure;Samples;Min_cycle;Max_cycle;Signal;HPM_P1;HPM_P2
2022/04/22 00:00:18;;;;;;;7.53;5.28;;;9.40;58.30;;;;;;5054110;28;20039;-65
2022/04/22 00:02:44;;;;;;;8.07;5.47;;;9.30;58.50;;;;;;5055793;28;20072;-65
2022/04/22 00:05:10;;;;;;;6.05;5.30;;;9.30;58.40;;;;;;5057844;28;20153;-65
2022/04/22 00:07:36;;;;;;;8.35;5.13;;;9.30;58.40;;;;;;5038248;28;20029;-64
2022/04/22 00:10:04;;;;;;;6.00;4.70;;;9.30;58.40;;;;;;5058680;28;20033;-65
2022/04/22 00:12:30;;;;;;;6.68;5.13;;;9.20;58.40;;;;;;5055577;28;20051;-65
2022/04/22 00:14:56;;;;;;;5.25;4.75;;;9.20;58.60;;;;;;5055548;28;20389;-64
2022/04/22 00:17:21;;;;;;;7.15;5.22;;;9.20;58.70;;;;;;5056094;28;20505;-64
2022/04/22 00:19:47;;;;;;;5.95;5.10;;;9.20;58.80;;;;;;5055675;28;20033;-64
2022/04/22 00:22:13;;;;;;;7.68;5.18;;;9.20;58.90;;;;;;5056465;28;20094;-64
2022/04/22 00:24:38;;;;;;;5.50;4.97;;;9.10;59.00;;;;;;5057326;28;20503;-64
2022/04/22 00:27:04;;;;;;;5.47;4.97;;;9.10;59.10;;;;;;5054522;28;20037;-64
2022/04/22 00:29:30;;;;;;;5.78;5.18;;;9.10;59.10;;;;;;5057821;28;20036;-64
2022/04/22 00:31:55;;;;;;;6.78;5.18;;;9.10;59.10;;;;;;5054868;28;20528;-64
2022/04/22 00:34:21;;;;;;;7.45;5.07;;;9.00;59.10;;;;;;5052667;28;20041;-64
2022/04/22 00:36:47;;;;;;;9.45;5.22;;;9.10;59.30;;;;;;5057731;28;20052;-64
2022/04/22 00:39:12;;;;;;;8.02;5.40;;;9.00;59.30;;;;;;5057858;28;20033;-64
2022/04/22 00:41:38;;;;;;;6.47;5.40;;;9.00;59.50;;;;;;5056123;28;20032;-64
2022/04/22 00:44:04;;;;;;;6.22;5.63;;;9.00;59.50;;;;;;5036882;28;20036;-65
2022/04/22 00:46:29;;;;;;;7.13;5.38;;;8.90;59.60;;;;;;5057671;28;20386;-64
2022/04/22 00:48:56;;;;;;;6.35;5.22;;;8.90;59.70;;;;;;5055096;28;20072;-64
2022/04/22 00:51:22;;;;;;;7.03;5.00;;;8.90;59.70;;;;;;5039213;28;20052;-64
2022/04/22 00:53:49;;;;;;;7.07;4.65;;;8.90;59.80;;;;;;5041562;28;20028;-64
2022/04/22 00:56:15;;;;;;;6.15;5.20;;;8.90;59.90;;;;;;5054418;28;20117;-65
2022/04/22 00:58:43;;;;;;;6.57;5.25;;;8.80;59.90;;;;;;5054875;28;20052;-64
2022/04/22 01:01:11;;;;;;;7.43;5.35;;;8.80;59.90;;;;;;5053380;28;20381;-64
2022/04/22 01:03:37;;;;;;;7.90;5.45;;;8.80;59.90;;;;;;5054444;28;20118;-64
2022/04/22 01:11:35;;;;;;;7.35;5.40;;;8.70;60.30;;;;;;5053138;28;20091;-63
2022/04/22 01:14:02;;;;;;;9.10;5.90;;;8.70;60.20;;;;;;5039426;28;20542;-65
2022/04/22 01:16:28;;;;;;;6.10;5.50;;;8.70;60.50;;;;;;5056047;28;20082;-64
2022/04/22 01:18:54;;;;;;;6.80;5.93;;;8.60;60.50;;;;;;5055493;28;20039;-65
2022/04/22 01:21:20;;;;;;;7.20;5.68;;;8.60;60.70;;;;;;5055612;28;20337;-64
2022/04/22 01:23:45;;;;;;;5.97;5.30;;;8.60;61.00;;;;;;5055638;28;20029;-65
2022/04/22 01:26:13;;;;;;;6.45;5.72;;;8.50;60.80;;;;;;5054192;28;20533;-64
2022/04/22 01:28:39;;;;;;;7.28;5.47;;;8.50;61.10;;;;;;5052747;28;20044;-65
2022/04/22 01:31:05;;;;;;;6.70;5.32;;;8.50;61.90;;;;;;5055357;28;20032;-64
2022/04/22 01:33:31;;;;;;;6.75;5.90;;;8.50;61.20;;;;;;5037922;28;20044;-64
2022/04/22 01:35:56;;;;;;;6.88;5.90;;;8.50;61.20;;;;;;5053256;28;20050;-65
2022/04/22 01:38:22;;;;;;;6.85;6.15;;;8.50;61.30;;;;;;5052684;28;20032;-64
2022/04/22 01:40:48;;;;;;;7.47;5.82;;;8.50;61.30;;;;;;5055987;28;20040;-65
2022/04/22 01:43:14;;;;;;;7.75;6.38;;;8.50;61.40;;;;;;5053002;28;20029;-64
2022/04/22 01:45:40;;;;;;;7.82;6.43;;;8.50;61.40;;;;;;5055392;28;20103;-64
2022/04/22 01:48:06;;;;;;;8.43;6.50;;;8.50;61.60;;;;;;5054781;28;20497;-64
2022/04/22 01:50:31;;;;;;;6.28;5.55;;;8.40;61.50;;;;;;5055353;28;20040;-64
2022/04/22 01:52:57;;;;;;;7.40;6.25;;;8.40;61.60;;;;;;5053861;28;20033;-64
2022/04/22 01:55:23;;;;;;;7.75;6.40;;;8.40;62.40;;;;;;5053395;28;20035;-63
2022/04/22 01:57:48;;;;;;;6.65;5.43;;;8.30;61.90;;;;;;5055988;28;20036;-64
2022/04/22 02:00:14;;;;;;;8.75;6.57;;;8.40;62.00;;;;;;5053070;28;20044;-65
2022/04/22 02:02:40;;;;;;;9.13;6.20;;;8.30;62.00;;;;;;5053916;28;20234;-64
2022/04/22 02:05:06;;;;;;;8.70;6.13;;;8.30;62.00;;;;;;5051908;28;20025;-61
2022/04/22 02:07:32;;;;;;;8.10;6.93;;;8.30;62.20;;;;;;5055817;28;20056;-65
2022/04/22 02:09:58;;;;;;;7.57;6.65;;;8.30;62.40;;;;;;5053536;28;20410;-63
2022/04/22 02:12:24;;;;;;;7.85;6.68;;;8.20;62.30;;;;;;5053388;28;20028;-64
2022/04/22 02:14:50;;;;;;;7.55;6.75;;;8.20;62.50;;;;;;5056547;28;20056;-65
2022/04/22 02:17:15;;;;;;;8.63;6.65;;;8.10;62.60;;;;;;5053355;28;20494;-65
2022/04/22 02:19:41;;;;;;;8.75;6.72;;;8.10;62.60;;;;;;5055389;28;20033;-64
2022/04/22 02:22:07;;;;;;;11.18;7.38;;;8.10;62.80;;;;;;5052588;28;20033;-64
2022/04/22 02:24:33;;;;;;;10.02;7.20;;;8.10;63.00;;;;;;5056067;28;20040;-63
2022/04/22 02:29:43;;;;;;;8.27;6.90;;;8.00;63.20;;;;;;5056064;28;20051;-64
2022/04/22 02:32:09;;;;;;;8.75;7.07;;;8.00;63.10;;;;;;5053528;28;20041;-64
2022/04/22 02:34:35;;;;;;;9.27;7.13;;;7.90;63.30;;;;;;5053064;28;20044;-65
2022/04/22 02:37:00;;;;;;;10.23;7.88;;;7.90;63.50;;;;;;5048910;28;20565;-64
2022/04/22 02:39:26;;;;;;;10.27;7.40;;;8.00;63.90;;;;;;5054955;28;20470;-65
2022/04/22 02:47:20;;;;;;;8.35;6.80;;;7.80;63.80;;;;;;5055201;28;20132;-65
2022/04/22 02:49:45;;;;;;;9.10;7.32;;;7.80;63.70;;;;;;5057656;28;20128;-66
2022/04/22 02:52:12;;;;;;;10.15;8.00;;;7.80;63.90;;;;;;5038938;28;20029;-64
2022/04/22 02:54:37;;;;;;;9.80;7.25;;;7.80;64.00;;;;;;5057631;28;20031;-63
2022/04/22 02:57:04;;;;;;;10.50;7.78;;;7.80;64.10;;;;;;5057689;28;20221;-64
2022/04/22 02:59:30;;;;;;;9.73;7.95;;;7.80;64.20;;;;;;5045430;28;20032;-65
2022/04/22 03:01:57;;;;;;;10.30;7.80;;;7.80;64.40;;;;;;5058067;28;20056;-64
2022/04/22 03:04:22;;;;;;;11.68;8.27;;;7.80;64.60;;;;;;5056409;28;20531;-65
2022/04/22 03:06:48;;;;;;;11.77;8.68;;;7.80;64.50;;;;;;5040615;28;20041;-64
2022/04/22 03:09:14;;;;;;;10.40;8.05;;;7.80;64.60;;;;;;5057204;28;20043;-64
2022/04/22 03:11:40;;;;;;;8.93;7.75;;;7.80;64.60;;;;;;5058304;28;20064;-65
2022/04/22 03:14:05;;;;;;;11.52;8.98;;;7.70;64.60;;;;;;5056603;28;20048;-65
2022/04/22 03:16:32;;;;;;;11.05;8.25;;;7.80;64.70;;;;;;5058062;28;20119;-64
2022/04/22 03:18:59;;;;;;;10.93;8.18;;;7.70;64.60;;;;;;5058730;28;20557;-65
2022/04/22 03:21:25;;;;;;;10.90;8.50;;;7.70;64.70;;;;;;5059730;28;20049;-65
2022/04/22 03:23:51;;;;;;;9.38;7.88;;;7.70;64.80;;;;;;5058384;28;20047;-64
2022/04/22 03:26:18;;;;;;;11.57;9.02;;;7.70;64.80;;;;;;5055649;28;20037;-65
2022/04/22 03:28:44;;;;;;;10.75;8.38;;;7.70;64.80;;;;;;5057262;28;20374;-64
2022/04/22 03:31:10;;;;;;;10.27;8.07;;;7.70;64.80;;;;;;5054428;28;20117;-65
2022/04/22 03:33:35;;;;;;;11.85;8.38;;;7.70;64.90;;;;;;5058740;28;20131;-65
2022/04/22 03:36:01;;;;;;;12.23;8.95;;;7.60;64.80;;;;;;5057336;28;20040;-64
2022/04/22 03:38:29;;;;;;;11.32;9.05;;;7.60;64.90;;;;;;5055968;28;20484;-65
2022/04/22 03:40:55;;;;;;;11.25;9.00;;;7.60;65.00;;;;;;5059342;28;20040;-64
2022/04/22 03:43:23;;;;;;;11.75;9.00;;;7.60;65.00;;;;;;5056269;28;20032;-65
2022/04/22 03:45:48;;;;;;;12.68;9.02;;;7.60;64.90;;;;;;5039683;28;20552;-64
2022/04/22 03:48:14;;;;;;;11.02;8.48;;;7.70;64.90;;;;;;5056169;28;20121;-64
2022/04/22 03:50:40;;;;;;;12.13;9.88;;;7.60;64.80;;;;;;5055409;28;20025;-64
2022/04/22 03:53:08;;;;;;;12.35;9.27;;;7.60;64.80;;;;;;5056214;28;20036;-62
2022/04/22 03:55:34;;;;;;;11.75;9.40;;;7.60;65.00;;;;;;5058884;28;20033;-64
2022/04/22 03:58:12;;;;;;;12.45;9.13;;;7.60;65.90;;;;;;5058348;28;20056;-64
2022/04/22 04:00:47;;;;;;;13.60;9.18;;;7.60;65.00;;;;;;5057160;28;20033;-65
2022/04/22 04:03:15;;;;;;;11.05;9.15;;;7.60;64.90;;;;;;5055927;28;20032;-64
2022/04/22 04:05:49;;;;;;;12.40;9.60;;;7.60;64.90;;;;;;5056765;28;20035;-65
2022/04/22 04:08:17;;;;;;;12.77;9.40;;;7.60;64.90;;;;;;5055724;28;20505;-65
2022/04/22 04:16:11;;;;;;;15.17;11.07;;;7.50;64.80;;;;;;5057091;28;20047;-65
2022/04/22 04:18:38;;;;;;;16.73;11.50;;;7.50;64.70;;;;;;5042021;28;20029;-64
2022/04/22 04:23:54;;;;;;;21.73;13.05;;;7.50;65.20;;;;;;5056868;28;20086;-64
2022/04/22 04:26:22;;;;;;;19.50;12.98;;;7.50;64.90;;;;;;5054114;28;20052;-65
2022/04/22 04:28:50;;;;;;;17.75;12.52;;;7.40;65.10;;;;;;5041246;28;20033;-65
2022/04/22 04:31:16;;;;;;;23.77;14.55;;;7.40;66.00;;;;;;5051590;28;20037;-65
2022/04/22 04:33:45;;;;;;;25.42;15.43;;;7.40;65.20;;;;;;5053358;28;20032;-64
2022/04/22 04:36:11;;;;;;;24.85;14.85;;;7.50;65.30;;;;;;5051545;28;20075;-64
2022/04/22 04:38:42;;;;;;;19.67;12.57;;;7.30;65.40;;;;;;5057389;28;20032;-63
2022/04/22 04:41:09;;;;;;;18.52;13.02;;;7.40;65.90;;;;;;5055517;28;20032;-62
2022/04/22 04:43:35;;;;;;;22.95;13.68;;;7.30;65.70;;;;;;5058117;28;20032;-65
2022/04/22 04:46:02;;;;;;;18.95;12.32;;;7.30;66.00;;;;;;5056975;28;20548;-64
2022/04/22 04:48:28;;;;;;;17.25;12.45;;;7.30;66.10;;;;;;5056515;28;20123;-64
2022/04/22 04:50:55;;;;;;;16.23;12.00;;;7.30;66.30;;;;;;5058999;28;20448;-64
2022/04/22 04:53:21;;;;;;;17.67;12.15;;;7.30;66.50;;;;;;5056219;28;20123;-65
2022/04/22 04:55:47;;;;;;;17.40;12.18;;;7.30;66.80;;;;;;5055549;28;20033;-65
2022/04/22 04:58:12;;;;;;;17.63;12.43;;;7.30;66.90;;;;;;5055896;28;20448;-65
2022/04/22 05:00:38;;;;;;;17.73;12.35;;;7.30;67.00;;;;;;5056334;28;20079;-64
2022/04/22 05:03:04;;;;;;;17.08;12.65;;;7.30;67.00;;;;;;5055351;28;20055;-65
2022/04/22 05:05:30;;;;;;;19.40;13.63;;;7.30;67.10;;;;;;5044640;28;20024;-65
2022/04/22 05:07:58;;;;;;;17.35;12.55;;;7.30;67.50;;;;;;5057414;28;20036;-65
2022/04/22 05:10:26;;;;;;;18.60;13.32;;;7.30;67.60;;;;;;5057090;28;20036;-65
2022/04/22 05:12:53;;;;;;;17.45;12.30;;;7.30;67.60;;;;;;5056564;28;20063;-64
2022/04/22 05:15:19;;;;;;;20.60;12.80;;;7.30;67.60;;;;;;5056262;28;20093;-64
2022/04/22 05:17:47;;;;;;;20.85;12.73;;;7.30;67.40;;;;;;5055816;28;20093;-64
2022/04/22 05:20:15;;;;;;;18.27;12.93;;;7.40;67.80;;;;;;5057167;28;20041;-65
2022/04/22 05:22:41;;;;;;;17.75;12.27;;;7.40;68.00;;;;;;5040602;28;20028;-65
2022/04/22 05:25:10;;;;;;;19.00;12.80;;;7.40;68.00;;;;;;5056335;28;20041;-64
2022/04/22 05:27:36;;;;;;;18.73;12.18;;;7.40;68.10;;;;;;5056444;28;20031;-65
2022/04/22 05:32:49;;;;;;;22.17;14.02;;;7.40;68.50;;;;;;5059360;28;20517;-65
2022/04/22 05:35:17;;;;;;;20.30;13.30;;;7.40;68.80;;;;;;5054513;28;20032;-64
2022/04/22 05:37:51;;;;;;;21.25;13.10;;;7.40;69.10;;;;;;5056694;28;20163;-65
2022/04/22 05:40:19;;;;;;;19.92;13.82;;;7.40;69.20;;;;;;5055434;28;20082;-64
2022/04/22 05:42:46;;;;;;;17.98;13.25;;;7.50;69.20;;;;;;5055655;28;20033;-64
2022/04/22 05:45:13;;;;;;;20.17;14.65;;;7.50;69.30;;;;;;5056732;28;20048;-64
2022/04/22 05:47:39;;;;;;;20.23;15.02;;;7.50;70.20;;;;;;5058175;28;20074;-64
2022/04/22 05:50:07;;;;;;;23.45;15.50;;;7.50;69.90;;;;;;5056138;28;20111;-64
2022/04/22 05:52:33;;;;;;;21.98;15.15;;;7.50;69.90;;;;;;5070600;28;20037;-64
2022/04/22 05:55:02;;;;;;;21.08;14.32;;;7.60;70.00;;;;;;5057002;28;20589;-64
2022/04/22 05:57:29;;;;;;;17.70;13.80;;;7.60;70.00;;;;;;5057322;28;20113;-64
2022/04/22 05:59:55;;;;;;;20.33;14.00;;;7.60;69.90;;;;;;5057436;28;20517;-64
2022/04/22 06:02:21;;;;;;;23.45;14.50;;;7.70;70.30;;;;;;5058780;28;20047;-64
2022/04/22 06:04:46;;;;;;;20.77;14.57;;;7.70;70.40;;;;;;5058015;28;20056;-63
2022/04/22 06:07:12;;;;;;;19.25;14.35;;;7.80;70.30;;;;;;5054582;28;20513;-65
2022/04/22 06:12:22;;;;;;;20.52;15.07;;;7.90;70.40;;;;;;5054194;28;20091;-64
2022/04/22 06:14:48;;;;;;;25.90;15.73;;;7.90;70.00;;;;;;5058040;28;20036;-64
2022/04/22 06:17:14;;;;;;;21.55;14.82;;;8.00;70.40;;;;;;5061026;28;20063;-64
2022/04/22 06:19:40;;;;;;;21.90;15.70;;;8.00;70.20;;;;;;5060932;28;20029;-65
2022/04/22 06:22:05;;;;;;;23.33;16.30;;;8.10;70.30;;;;;;5060424;28;20033;-64
2022/04/22 06:24:31;;;;;;;22.88;15.85;;;8.10;70.20;;;;;;5058026;28;20036;-64
2022/04/22 06:26:56;;;;;;;22.75;16.50;;;8.10;70.20;;;;;;5060427;28;20036;-64
2022/04/22 06:29:22;;;;;;;22.60;15.98;;;8.20;70.20;;;;;;5058759;28;20474;-64
2022/04/22 06:31:48;;;;;;;21.67;15.85;;;8.20;70.00;;;;;;5060358;28;20044;-64
2022/04/22 06:34:14;;;;;;;24.60;16.63;;;8.30;69.90;;;;;;5060699;28;20039;-64
2022/04/22 06:36:40;;;;;;;22.30;16.13;;;8.30;70.10;;;;;;5060282;28;20056;-64
2022/04/22 06:39:06;;;;;;;26.48;17.15;;;8.30;70.00;;;;;;5060496;28;20039;-64
2022/04/22 06:47:01;;;;;;;28.00;17.02;;;8.50;69.90;;;;;;5058580;28;20402;-63
2022/04/22 06:49:27;;;;;;;23.70;16.67;;;8.60;70.00;;;;;;5058366;28;20033;-64
2022/04/22 06:51:53;;;;;;;24.52;16.98;;;8.60;70.10;;;;;;5060858;28;20039;-64
2022/04/22 06:54:19;;;;;;;24.23;17.85;;;8.70;70.40;;;;;;5058114;28;20849;-65
2022/04/22 06:56:49;;;;;;;22.60;16.58;;;8.70;70.20;;;;;;5060544;28;20042;-64
2022/04/22 06:59:19;;;;;;;22.42;16.83;;;8.80;70.10;;;;;;5058554;28;20512;-64
2022/04/22 07:01:45;;;;;;;26.38;18.25;;;8.80;70.20;;;;;;5060555;28;20049;-64
2022/04/22 07:04:11;;;;;;;22.70;16.92;;;8.90;70.60;;;;;;5059220;28;20032;-65
2022/04/22 07:06:37;;;;;;;25.58;17.15;;;9.00;70.30;;;;;;5059966;28;20031;-63
2022/04/22 07:09:04;;;;;;;22.23;16.65;;;9.00;70.10;;;;;;5058569;28;20041;-64
2022/04/22 07:11:31;;;;;;;23.88;17.38;;;9.10;70.10;;;;;;5059262;28;20479;-64
2022/04/22 07:13:59;;;;;;;22.02;16.05;;;9.20;70.20;;;;;;5059616;28;20028;-64
2022/04/22 07:16:25;;;;;;;22.55;16.30;;;9.30;70.00;;;;;;5058923;28;20041;-65
2022/04/22 07:18:54;;;;;;;23.17;16.58;;;9.40;69.80;;;;;;5059732;28;20045;-64
2022/04/22 07:21:23;;;;;;;21.48;15.68;;;9.50;69.70;;;;;;5063983;28;20020;-65
2022/04/22 07:23:49;;;;;;;22.23;16.70;;;9.60;69.50;;;;;;5059653;28;20101;-63
2022/04/22 07:26:17;;;;;;;23.95;16.70;;;9.70;69.30;;;;;;5058743;28;20501;-64
2022/04/22 07:28:47;;;;;;;21.38;16.10;;;9.70;69.20;;;;;;5059582;28;20032;-64
2022/04/22 07:31:18;;;;;;;23.23;17.40;;;9.80;69.00;;;;;;5059807;28;20036;-65
2022/04/22 07:33:44;;;;;;;20.02;15.15;;;9.90;68.70;;;;;;5058633;28;20497;-64
2022/04/22 07:36:10;;;;;;;20.58;15.95;;;10.00;68.30;;;;;;5060452;28;20061;-65
2022/04/22 07:38:36;;;;;;;21.10;16.45;;;10.10;68.30;;;;;;5058531;28;20039;-64
2022/04/22 07:41:02;;;;;;;19.30;16.35;;;10.10;68.20;;;;;;5059360;28;20037;-64
2022/04/22 07:48:57;;;;;;;20.65;15.55;;;10.40;67.40;;;;;;5044809;28;20047;-64
2022/04/22 07:51:25;;;;;;;20.77;15.48;;;10.50;67.30;;;;;;5059010;28;20167;-64
2022/04/22 07:53:51;;;;;;;22.05;15.85;;;10.60;67.10;;;;;;5059105;28;20037;-65
2022/04/22 07:56:17;;;;;;;19.50;14.88;;;10.70;67.10;;;;;;5054098;28;20082;-64
2022/04/22 07:58:43;;;;;;;20.23;15.82;;;10.70;66.70;;;;;;5058981;28;21528;-64
2022/04/22 08:01:09;;;;;;;19.58;15.07;;;10.80;66.60;;;;;;5058304;28;20098;-64
2022/04/22 08:03:36;;;;;;;20.50;15.77;;;10.80;66.40;;;;;;5056089;28;20067;-63
2022/04/22 08:06:02;;;;;;;19.77;15.02;;;10.90;66.40;;;;;;5060259;28;20024;-64
2022/04/22 08:08:30;;;;;;;19.80;14.88;;;11.00;66.10;;;;;;5056419;28;20025;-64
2022/04/22 08:10:56;;;;;;;18.75;15.45;;;11.10;66.00;;;;;;5055522;28;20044;-64
2022/04/22 08:13:24;;;;;;;21.88;15.63;;;11.10;66.00;;;;;;5060495;28;20175;-64
2022/04/22 08:15:49;;;;;;;19.90;15.07;;;11.20;65.90;;;;;;5056405;28;20668;-64
2022/04/22 08:18:15;;;;;;;20.08;15.35;;;11.30;65.90;;;;;;5060301;28;20036;-64
2022/04/22 08:20:40;;;;;;;18.95;15.93;;;11.30;65.90;;;;;;5060702;28;20029;-64
2022/04/22 08:23:06;;;;;;;17.83;14.52;;;11.40;65.70;;;;;;5061573;28;20524;-62
2022/04/22 08:25:32;;;;;;;16.95;14.55;;;11.50;66.20;;;;;;5057603;28;20037;-64
2022/04/22 08:27:57;;;;;;;19.65;15.35;;;11.60;65.40;;;;;;5058754;28;20082;-64
2022/04/22 08:30:23;;;;;;;18.73;15.32;;;11.60;65.20;;;;;;5058209;28;20031;-64
2022/04/22 08:32:49;;;;;;;19.40;15.80;;;11.70;65.20;;;;;;5057565;28;20547;-64
2022/04/22 08:35:14;;;;;;;19.15;15.35;;;11.80;65.00;;;;;;5057990;28;20082;-65
2022/04/22 08:37:44;;;;;;;19.65;15.93;;;11.90;64.80;;;;;;5053779;28;20573;-64
2022/04/22 08:40:10;;;;;;;20.02;16.00;;;12.00;64.60;;;;;;5059278;28;20032;-64
2022/04/22 08:42:38;;;;;;;19.00;15.68;;;12.00;64.30;;;;;;5059293;28;20468;-64
2022/04/22 08:45:06;;;;;;;20.08;15.98;;;12.00;64.30;;;;;;5058306;28;20112;-64
2022/04/22 08:50:16;;;;;;;21.70;15.53;;;12.20;63.90;;;;;;5057657;28;20515;-64
2022/04/22 08:52:49;;;;;;;18.67;16.00;;;12.20;63.70;;;;;;5054352;28;20520;-64
2022/04/22 08:55:18;;;;;;;18.90;15.32;;;12.30;64.40;;;;;;5059948;28;20033;-65
2022/04/22 08:57:44;;;;;;;21.05;15.73;;;12.40;63.60;;;;;;5057724;28;20112;-65
2022/04/22 09:00:10;;;;;;;19.45;16.13;;;12.40;63.40;;;;;;5057109;28;20144;-64
2022/04/22 09:02:35;;;;;;;18.98;15.48;;;12.50;63.20;;;;;;5055515;28;20041;-64
2022/04/22 09:05:02;;;;;;;19.00;15.43;;;12.50;62.90;;;;;;5058500;28;20414;-65
2022/04/22 09:07:28;;;;;;;20.20;15.18;;;12.60;62.90;;;;;;5056704;28;20108;-65
2022/04/22 09:09:54;;;;;;;18.92;15.32;;;12.70;62.90;;;;;;5059870;28;20055;-64
2022/04/22 09:12:23;;;;;;;18.60;14.95;;;12.70;62.60;;;;;;5056975;28;20416;-64
2022/04/22 09:14:58;;;;;;;16.27;13.90;;;12.80;62.40;;;;;;5056474;28;20126;-64
2022/04/22 09:17:29;;;;;;;20.40;14.93;;;12.80;62.30;;;;;;5058678;28;20029;-64
2022/04/22 09:19:57;;;;;;;21.02;15.32;;;12.90;62.40;;;;;;5058436;28;20051;-65
2022/04/22 09:22:27;;;;;;;19.20;14.65;;;13.00;62.40;;;;;;5057876;28;20469;-64
2022/04/22 09:24:53;;;;;;;19.48;13.68;;;13.10;62.40;;;;;;5058155;28;20440;-65
2022/04/22 09:27:30;;;;;;;17.95;14.82;;;13.10;62.30;;;;;;5059255;28;20156;-64
2022/04/22 09:29:56;;;;;;;18.90;13.75;;;13.20;62.20;;;;;;5057398;28;20033;-64
2022/04/22 09:32:32;;;;;;;16.77;13.88;;;13.30;62.20;;;;;;5058387;28;20148;-64
2022/04/22 09:35:16;;;;;;;15.60;12.68;;;13.40;62.20;;;;;;5056152;28;20104;-64
2022/04/22 09:43:36;;;;;;;16.02;13.35;;;13.70;60.20;;;;;;5055066;28;20424;-66
2022/04/22 09:46:02;;;;;;;14.60;12.95;;;13.80;60.60;;;;;;5059366;28;20029;-63
2022/04/22 09:48:41;;;;;;;14.38;12.10;;;13.80;60.50;;;;;;5054065;28;21215;-64
2022/04/22 09:51:24;;;;;;;14.75;12.15;;;13.90;60.40;;;;;;5056883;28;20028;-64
2022/04/22 09:54:03;;;;;;;16.55;14.25;;;14.00;60.30;;;;;;5054239;28;20033;-65
2022/04/22 09:56:30;;;;;;;14.07;12.25;;;14.00;59.60;;;;;;5056674;28;20232;-65
2022/04/22 09:58:58;;;;;;;12.70;11.40;;;14.10;59.90;;;;;;5056513;28;20029;-65
2022/04/22 10:01:25;;;;;;;17.25;12.68;;;14.20;59.70;;;;;;5057399;28;20401;-65
2022/04/22 10:03:51;;;;;;;17.08;13.60;;;14.30;59.50;;;;;;5072108;28;20075;-65
2022/04/22 10:06:18;;;;;;;13.68;12.13;;;14.40;59.40;;;;;;5059393;28;20486;-64
2022/04/22 10:08:46;;;;;;;13.73;12.32;;;14.50;59.40;;;;;;5056546;28;20052;-63
2022/04/22 10:11:15;;;;;;;14.07;12.57;;;14.50;59.20;;;;;;5054906;28;20033;-64
2022/04/22 10:13:46;;;;;;;14.50;13.10;;;14.60;59.00;;;;;;5056226;28;20044;-64
2022/04/22 10:16:12;;;;;;;14.65;12.48;;;14.70;58.90;;;;;;5073105;28;20086;-64
2022/04/22 10:18:39;;;;;;;15.45;12.65;;;14.80;58.70;;;;;;5055375;28;20040;-64
2022/04/22 10:21:05;;;;;;;17.67;12.45;;;14.80;58.60;;;;;;5056016;28;20466;-65
2022/04/22 10:23:32;;;;;;;15.80;12.98;;;14.90;58.40;;;;;;5056995;28;20452;-64
2022/04/22 10:25:58;;;;;;;14.70;12.93;;;15.00;58.80;;;;;;5058061;28;20030;-65
2022/04/22 10:28:26;;;;;;;13.30;11.90;;;15.00;58.00;;;;;;5055966;28;20115;-64
2022/04/22 10:30:54;;;;;;;14.70;12.85;;;15.00;58.00;;;;;;5055758;28;20668;-65
2022/04/22 10:33:24;;;;;;;16.63;13.30;;;15.10;58.10;;;;;;5055580;28;20081;-65
2022/04/22 10:35:56;;;;;;;13.48;12.00;;;15.20;57.60;;;;;;5053900;28;20045;-65
2022/04/22 10:38:39;;;;;;;13.52;12.13;;;15.20;57.50;;;;;;5057795;28;20157;-64
2022/04/22 10:41:19;;;;;;;14.13;12.23;;;15.20;56.90;;;;;;5058154;28;21318;-65
2022/04/22 10:49:43;;;;;;;15.07;12.45;;;15.30;57.30;;;;;;5056746;28;20086;-65
2022/04/22 10:52:14;;;;;;;15.38;13.77;;;15.40;57.20;;;;;;5055439;28;20033;-65
2022/04/22 10:54:51;;;;;;;14.20;12.20;;;15.40;56.50;;;;;;5056693;28;20037;-65
2022/04/22 10:57:29;;;;;;;13.13;11.75;;;15.50;56.70;;;;;;5055880;28;20635;-65
2022/04/22 11:00:07;;;;;;;13.82;11.45;;;15.50;56.80;;;;;;5059610;28;20448;-65
2022/04/22 11:02:35;;;;;;;13.40;11.98;;;15.60;56.40;;;;;;5060624;28;20063;-65
2022/04/22 11:05:25;;;;;;;15.20;13.20;;;15.70;57.00;;;;;;5059494;28;20037;-65
2022/04/22 11:07:50;;;;;;;15.18;12.38;;;15.80;56.50;;;;;;5062261;28;20037;-63
2022/04/22 11:10:16;;;;;;;14.43;12.07;;;15.90;56.80;;;;;;5062465;28;20412;-65
2022/04/22 11:12:52;;;;;;;14.48;11.75;;;15.90;56.70;;;;;;5062538;28;20456;-64
2022/04/22 11:15:42;;;;;;;14.15;11.38;;;16.00;55.40;;;;;;5059734;28;20028;-64
2022/04/22 11:18:12;;;;;;;13.77;11.68;;;16.10;55.50;;;;;;5059063;28;20025;-65
2022/04/22 11:20:42;;;;;;;13.30;11.07;;;16.20;55.80;;;;;;5060601;28;20028;-65
2022/04/22 11:23:12;;;;;;;14.65;12.32;;;16.30;55.90;;;;;;5059897;28;20038;-65
2022/04/22 11:25:38;;;;;;;16.30;12.60;;;16.30;55.40;;;;;;5060226;28;20032;-65
2022/04/22 11:28:05;;;;;;;15.52;11.60;;;16.40;55.40;;;;;;5057841;28;20033;-63
2022/04/22 11:30:32;;;;;;;13.57;12.00;;;16.40;54.90;;;;;;5059059;28;20510;-64
2022/04/22 11:33:22;;;;;;;12.40;11.10;;;16.50;55.10;;;;;;5057859;28;20032;-64
2022/04/22 11:35:58;;;;;;;14.15;12.75;;;16.50;54.90;;;;;;5052353;28;20189;-64
2022/04/22 11:38:25;;;;;;;16.13;12.52;;;16.60;55.00;;;;;;5057754;28;20476;-65
2022/04/22 11:40:50;;;;;;;13.30;11.63;;;16.70;55.10;;;;;;5059202;28;20111;-64
2022/04/22 11:43:18;;;;;;;13.68;11.27;;;16.80;55.20;;;;;;5060152;28;20529;-65
2022/04/22 11:45:49;;;;;;;13.40;10.65;;;16.80;55.00;;;;;;5060258;28;20522;-65
2022/04/22 11:48:21;;;;;;;12.88;11.50;;;17.00;54.70;;;;;;5060605;28;20089;-65
2022/04/22 11:50:47;;;;;;;15.00;11.40;;;17.10;54.30;;;;;;5058566;28;20036;-65
2022/04/22 11:53:17;;;;;;;13.18;11.75;;;17.10;54.20;;;;;;5060033;28;20036;-65
2022/04/22 11:55:43;;;;;;;13.50;11.02;;;17.20;54.00;;;;;;5059561;28;20037;-64
2022/04/22 11:58:10;;;;;;;13.20;11.43;;;17.20;53.90;;;;;;5061237;28;20200;-65
2022/04/22 12:06:15;;;;;;;12.15;10.90;;;17.30;53.80;;;;;;5059117;28;20050;-66
2022/04/22 12:08:54;;;;;;;16.02;11.23;;;17.40;53.50;;;;;;5055437;28;20095;-65
2022/04/22 12:11:20;;;;;;;13.23;11.88;;;17.50;53.00;;;;;;5057392;28;20386;-65
2022/04/22 12:13:49;;;;;;;12.73;11.40;;;17.50;52.50;;;;;;5060183;28;20044;-65
2022/04/22 12:16:19;;;;;;;11.27;10.07;;;17.50;52.80;;;;;;5060005;28;20067;-64
2022/04/22 12:18:50;;;;;;;10.80;9.45;;;17.60;52.80;;;;;;5059570;28;20036;-64
2022/04/22 12:21:17;;;;;;;10.93;9.82;;;17.60;52.70;;;;;;5060196;28;20033;-64
2022/04/22 12:23:44;;;;;;;11.52;9.52;;;17.70;52.60;;;;;;5059372;28;20575;-64
2022/04/22 12:26:18;;;;;;;11.20;9.73;;;17.70;52.20;;;;;;5058847;28;20066;-64
2022/04/22 12:28:57;;;;;;;11.77;8.85;;;17.80;51.50;;;;;;5059538;28;20445;-64
2022/04/22 12:31:24;;;;;;;10.40;9.20;;;17.80;51.20;;;;;;5059595;28;20421;-65
2022/04/22 12:34:06;;;;;;;10.13;8.82;;;17.80;51.70;;;;;;5059392;28;20050;-65
2022/04/22 12:36:50;;;;;;;11.65;9.25;;;17.90;51.70;;;;;;5058987;28;20083;-64
2022/04/22 12:39:41;;;;;;;10.52;9.43;;;17.90;51.50;;;;;;5059148;28;20028;-65
2022/04/22 12:42:27;;;;;;;10.63;9.52;;;18.00;51.30;;;;;;5060003;28;20057;-64
2022/04/22 12:53:48;;;;;;;10.63;9.63;;;18.20;50.90;;;;;;5059596;28;20066;-65
2022/04/22 12:56:14;;;;;;;12.70;11.40;;;18.20;50.90;;;;;;5059005;28;20496;-65
2022/04/22 12:59:00;;;;;;;13.10;11.68;;;18.20;50.20;;;;;;5058990;28;20039;-65
2022/04/22 13:01:27;;;;;;;12.02;9.65;;;18.20;49.70;;;;;;5058865;28;20035;-65
2022/04/22 13:03:53;;;;;;;10.38;9.32;;;18.20;50.80;;;;;;5058931;28;20490;-65
2022/04/22 13:06:47;;;;;;;11.35;10.18;;;18.20;51.00;;;;;;5057142;28;20040;-65
2022/04/22 13:09:15;;;;;;;9.70;8.80;;;18.20;50.20;;;;;;5058467;28;20052;-65
2022/04/22 13:11:42;;;;;;;10.18;9.07;;;18.30;51.20;;;;;;5058448;28;20079;-65
2022/04/22 13:14:08;;;;;;;9.18;7.47;;;18.30;51.00;;;;;;5057904;28;20436;-64
2022/04/22 13:16:34;;;;;;;9.05;7.35;;;18.40;50.70;;;;;;5058546;28;20032;-65
2022/04/22 13:19:01;;;;;;;8.80;7.13;;;18.50;50.10;;;;;;5056898;28;20025;-65
2022/04/22 13:21:27;;;;;;;9.90;7.72;;;18.50;50.00;;;;;;5059358;28;20029;-65
2022/04/22 13:23:52;;;;;;;10.77;7.88;;;18.60;49.90;;;;;;5058199;28;20340;-65
2022/04/22 13:26:19;;;;;;;7.55;6.85;;;18.60;50.00;;;;;;5056239;28;20131;-65
2022/04/22 13:28:45;;;;;;;7.93;7.13;;;18.70;49.90;;;;;;5052789;28;20044;-64
2022/04/22 13:31:11;;;;;;;8.80;6.97;;;18.80;49.70;;;;;;5055060;28;20583;-65
2022/04/22 13:33:38;;;;;;;8.57;6.78;;;18.80;49.50;;;;;;5055149;28;20067;-65
2022/04/22 13:36:04;;;;;;;10.68;8.40;;;18.90;49.30;;;;;;5056945;28;20086;-65
2022/04/22 13:38:32;;;;;;;7.70;7.00;;;19.00;49.20;;;;;;5056591;28;20158;-65
2022/04/22 13:40:58;;;;;;;7.15;6.55;;;19.00;49.30;;;;;;5056882;28;20121;-64
2022/04/22 13:43:28;;;;;;;7.75;7.05;;;19.00;49.10;;;;;;5057246;28;20070;-64
2022/04/22 13:54:06;;;;;;;7.77;6.97;;;19.20;48.90;;;;;;5052764;28;20748;-65
2022/04/22 13:56:32;;;;;;;8.07;6.97;;;19.20;48.90;;;;;;5054656;28;20064;-63